Airfield :
LOGIN :

Register | Disclaimer

   EN    FR    IT 

 










Legend :    VFR   Marginal VFR   IFR   Intensive IFR   Very Intensive IFR
Visi :
Ceiling :
>= 8 km
>= 3000ft
5 to 8 km
1000 to 3000 ft
1500m to 5 km
500 to 1000 ft
800 to 1500m
200 to 500 ft
< 800m
< 200 ft
Symbols :   Thunderstorms  Fog  Heavy snow  Heavy precipitations  Wind > 20 kt
SIGMETs :     Misc.  Thunderstorms  Icing  Turbulence  Mountain Waves  Volcanic Ashes






- Airport Elevation : 1910 ft
- IATA code : RDZ


LFCR - Rodez

CURRENT METAR :
  • 231630Z AUTO 36006KT 9999 -RA FEW032/// BKN052/// BKN070/// ///CB 13/11 Q1018 BECMG SCT020

EXPIRED METARs :
  • 231600Z AUTO 33009KT 300V010 9999 FEW032/// SCT054/// ///CB 14/09 Q1018 NOSIG
  • 231530Z AUTO 32005KT 280V350 9999 SCT029/// BKN036/// BKN050/// //////TCU 15/10 Q1018 TEMPO BKN020 FEW035CB
  • 231500Z AUTO 34005KT 300V030 9999 BKN031/// BKN039/// BKN070/// //////CB 15/09 Q1018 NOSIG
  • 231430Z AUTO 34007KT 290V030 9999 SCT034/// BKN049/// BKN056/// //////TCU 15/10 Q1018 TEMPO BKN020 FEW035CB
  • 231400Z AUTO 26009KT 200V300 9999 SCT039 BKN070 16/08 Q1018 TEMPO BKN020 FEW035CB
  • 231330Z AUTO 23011KT 9999 BKN037/// BKN052/// //////CB 16/09 Q1018 NOSIG
  • 231300Z AUTO 23011KT 9999 FEW021/// SCT032/// ///CB 16/10 Q1019 NOSIG
  • 231230Z AUTO 25009KT 200V280 9999 SCT020/// SCT027/// BKN042/// //////CB 15/10 Q1019 NOSIG
  • 231200Z AUTO 24006KT 210V280 9999 ///CB 15/09 Q1019 NOSIG

TAF TAF LFCR
Valid from the 23 at 12:00 until the 24 at 12:00 UTC


231100Z 2312/2412 27008KT 9999 SCT025TCU
TEMPO 2312/2318 BKN020 FEW035CB
BECMG 2318/2320 SCT020
BECMG 2323/2401 3000 BR OVC003
PROB40
TEMPO 2401/2405 0800 FG VV///
BECMG 2405/2407 9999 NSW BKN012
BECMG 2407/2409 SCT018TCU



MET'MAP, your aeronautical weather chart ! - Copyright ORBIFLY December 2007 - Disclaimer

ORBIFLY MET'MAP TEAM :

Programming & Development : Alexandra Zaïnal
Original concept : Baudouin d'Aumeries
Technical & hardware support : Manuel Goepfert
Assistance : Marc-Olivier Méhu




SOURCES & CREDITS :

   NOAA